sensor_id;sensor_type;location;lat;lon;timestamp;temperature;humidity
15013;DHT22;7603;49.432;11.418;2023-08-30T00:00:20;11.60;99.90
15013;DHT22;7603;49.432;11.418;2023-08-30T00:02:48;11.50;99.90
15013;DHT22;7603;49.432;11.418;2023-08-30T00:05:14;11.50;99.90
15013;DHT22;7603;49.432;11.418;2023-08-30T00:07:40;11.40;99.90
15013;DHT22;7603;49.432;11.418;2023-08-30T00:10:07;11.30;99.90
15013;DHT22;7603;49.432;11.418;2023-08-30T00:12:33;11.30;99.90
15013;DHT22;7603;49.432;11.418;2023-08-30T00:14:59;11.30;99.90
15013;DHT22;7603;49.432;11.418;2023-08-30T00:17:25;11.20;99.90
15013;DHT22;7603;49.432;11.418;2023-08-30T00:19:51;11.20;99.90
15013;DHT22;7603;49.432;11.418;2023-08-30T00:22:18;11.20;99.90
15013;DHT22;7603;49.432;11.418;2023-08-30T00:24:44;11.20;99.90
15013;DHT22;7603;49.432;11.418;2023-08-30T00:27:11;11.20;99.90
15013;DHT22;7603;49.432;11.418;2023-08-30T00:29:37;11.10;99.90
15013;DHT22;7603;49.432;11.418;2023-08-30T00:32:03;11.10;99.90
15013;DHT22;7603;49.432;11.418;2023-08-30T00:34:29;11.10;99.90
15013;DHT22;7603;49.432;11.418;2023-08-30T00:36:54;11.10;99.90
15013;DHT22;7603;49.432;11.418;2023-08-30T00:39:20;11.10;99.90
15013;DHT22;7603;49.432;11.418;2023-08-30T00:41:45;11.10;99.90
15013;DHT22;7603;49.432;11.418;2023-08-30T00:44:11;11.10;99.90
15013;DHT22;7603;49.432;11.418;2023-08-30T00:46:37;11.10;99.90
15013;DHT22;7603;49.432;11.418;2023-08-30T00:49:04;11.10;99.90
15013;DHT22;7603;49.432;11.418;2023-08-30T00:51:30;11.10;99.90
15013;DHT22;7603;49.432;11.418;2023-08-30T00:53:58;11.00;99.90
15013;DHT22;7603;49.432;11.418;2023-08-30T00:56:24;11.00;99.90
15013;DHT22;7603;49.432;11.418;2023-08-30T00:58:50;11.00;99.90
15013;DHT22;7603;49.432;11.418;2023-08-30T01:01:17;11.00;99.90
15013;DHT22;7603;49.432;11.418;2023-08-30T01:03:44;11.00;99.90
15013;DHT22;7603;49.432;11.418;2023-08-30T01:06:09;11.00;99.90
15013;DHT22;7603;49.432;11.418;2023-08-30T01:08:38;10.90;99.90
15013;DHT22;7603;49.432;11.418;2023-08-30T01:11:21;10.90;99.90
15013;DHT22;7603;49.432;11.418;2023-08-30T01:14:04;10.90;99.90
15013;DHT22;7603;49.432;11.418;2023-08-30T01:16:32;10.90;99.90
15013;DHT22;7603;49.432;11.418;2023-08-30T01:18:59;10.90;99.90
15013;DHT22;7603;49.432;11.418;2023-08-30T01:21:36;10.90;99.90
15013;DHT22;7603;49.432;11.418;2023-08-30T01:24:10;10.90;99.90
15013;DHT22;7603;49.432;11.418;2023-08-30T01:26:59;10.90;99.90
15013;DHT22;7603;49.432;11.418;2023-08-30T01:29:26;11.00;99.90
15013;DHT22;7603;49.432;11.418;2023-08-30T01:31:53;11.00;99.90
15013;DHT22;7603;49.432;11.418;2023-08-30T01:34:19;11.00;99.90
15013;DHT22;7603;49.432;11.418;2023-08-30T01:36:45;11.00;99.90
15013;DHT22;7603;49.432;11.418;2023-08-30T01:39:13;11.10;99.90
15013;DHT22;7603;49.432;11.418;2023-08-30T01:41:41;11.10;99.90
15013;DHT22;7603;49.432;11.418;2023-08-30T01:44:08;11.10;99.90
15013;DHT22;7603;49.432;11.418;2023-08-30T01:46:35;11.10;99.90
15013;DHT22;7603;49.432;11.418;2023-08-30T01:49:03;11.10;99.90
15013;DHT22;7603;49.432;11.418;2023-08-30T01:51:29;11.20;99.90
15013;DHT22;7603;49.432;11.418;2023-08-30T01:53:56;11.20;99.90
15013;DHT22;7603;49.432;11.418;2023-08-30T01:56:23;11.20;99.90
15013;DHT22;7603;49.432;11.418;2023-08-30T01:58:49;11.30;99.90
15013;DHT22;7603;49.432;11.418;2023-08-30T02:01:15;11.30;99.90
15013;DHT22;7603;49.432;11.418;2023-08-30T02:03:43;11.40;99.90
15013;DHT22;7603;49.432;11.418;2023-08-30T02:06:17;11.40;99.90
15013;DHT22;7603;49.432;11.418;2023-08-30T02:09:03;11.50;99.90
15013;DHT22;7603;49.432;11.418;2023-08-30T02:11:32;11.40;99.90
15013;DHT22;7603;49.432;11.418;2023-08-30T02:14:00;11.50;99.90
15013;DHT22;7603;49.432;11.418;2023-08-30T02:16:27;11.40;99.90
15013;DHT22;7603;49.432;11.418;2023-08-30T02:18:53;11.50;99.90
15013;DHT22;7603;49.432;11.418;2023-08-30T02:21:20;11.50;99.90
15013;DHT22;7603;49.432;11.418;2023-08-30T02:23:52;11.40;99.90
15013;DHT22;7603;49.432;11.418;2023-08-30T02:26:19;11.50;99.90
15013;DHT22;7603;49.432;11.418;2023-08-30T02:28:45;11.50;99.90
15013;DHT22;7603;49.432;11.418;2023-08-30T02:31:11;11.50;99.90
15013;DHT22;7603;49.432;11.418;2023-08-30T02:33:36;11.50;99.90
15013;DHT22;7603;49.432;11.418;2023-08-30T02:36:03;11.50;99.90
15013;DHT22;7603;49.432;11.418;2023-08-30T02:38:29;11.50;99.90
15013;DHT22;7603;49.432;11.418;2023-08-30T02:40:54;11.50;99.90
15013;DHT22;7603;49.432;11.418;2023-08-30T02:43:20;11.60;99.90
15013;DHT22;7603;49.432;11.418;2023-08-30T02:45:46;11.60;99.90
15013;DHT22;7603;49.432;11.418;2023-08-30T02:48:11;11.60;99.90
15013;DHT22;7603;49.432;11.418;2023-08-30T02:50:37;11.60;99.90
15013;DHT22;7603;49.432;11.418;2023-08-30T02:53:03;11.70;99.90
15013;DHT22;7603;49.432;11.418;2023-08-30T02:55:30;11.70;99.90
15013;DHT22;7603;49.432;11.418;2023-08-30T02:57:56;11.70;99.90
15013;DHT22;7603;49.432;11.418;2023-08-30T03:00:21;11.70;99.90
15013;DHT22;7603;49.432;11.418;2023-08-30T03:02:47;11.80;99.90
15013;DHT22;7603;49.432;11.418;2023-08-30T03:05:13;11.80;99.90
15013;DHT22;7603;49.432;11.418;2023-08-30T03:07:39;11.80;99.90
15013;DHT22;7603;49.432;11.418;2023-08-30T03:10:05;11.80;99.90
15013;DHT22;7603;49.432;11.418;2023-08-30T03:12:31;11.80;99.90
15013;DHT22;7603;49.432;11.418;2023-08-30T03:14:56;11.90;99.90
15013;DHT22;7603;49.432;11.418;2023-08-30T03:17:22;11.90;99.90
15013;DHT22;7603;49.432;11.418;2023-08-30T03:19:50;11.90;99.90
15013;DHT22;7603;49.432;11.418;2023-08-30T03:22:16;12.00;99.90
15013;DHT22;7603;49.432;11.418;2023-08-30T03:24:42;12.00;99.90
15013;DHT22;7603;49.432;11.418;2023-08-30T03:27:07;12.00;99.90
15013;DHT22;7603;49.432;11.418;2023-08-30T03:29:33;12.10;99.90
15013;DHT22;7603;49.432;11.418;2023-08-30T03:31:59;12.10;99.90
15013;DHT22;7603;49.432;11.418;2023-08-30T03:34:24;12.20;99.90
15013;DHT22;7603;49.432;11.418;2023-08-30T03:36:50;12.20;99.90
15013;DHT22;7603;49.432;11.418;2023-08-30T03:39:20;12.20;99.90
15013;DHT22;7603;49.432;11.418;2023-08-30T03:41:46;12.20;99.90
15013;DHT22;7603;49.432;11.418;2023-08-30T03:44:11;12.20;99.90
15013;DHT22;7603;49.432;11.418;2023-08-30T03:46:37;12.20;99.90
15013;DHT22;7603;49.432;11.418;2023-08-30T03:49:03;12.20;99.90
15013;DHT22;7603;49.432;11.418;2023-08-30T03:51:29;12.30;99.90
15013;DHT22;7603;49.432;11.418;2023-08-30T03:53:55;12.30;99.90
15013;DHT22;7603;49.432;11.418;2023-08-30T03:56:24;12.30;99.90
15013;DHT22;7603;49.432;11.418;2023-08-30T03:58:49;12.30;99.90
15013;DHT22;7603;49.432;11.418;2023-08-30T04:01:15;12.30;99.90
15013;DHT22;7603;49.432;11.418;2023-08-30T04:03:41;12.30;99.90
15013;DHT22;7603;49.432;11.418;2023-08-30T04:06:06;12.30;99.90
15013;DHT22;7603;49.432;11.418;2023-08-30T04:08:32;12.30;99.90
15013;DHT22;7603;49.432;11.418;2023-08-30T04:10:58;12.30;99.90
15013;DHT22;7603;49.432;11.418;2023-08-30T04:13:24;12.30;99.90
15013;DHT22;7603;49.432;11.418;2023-08-30T04:15:51;12.30;99.90
15013;DHT22;7603;49.432;11.418;2023-08-30T04:18:17;12.30;99.90
15013;DHT22;7603;49.432;11.418;2023-08-30T04:20:46;12.30;99.90
15013;DHT22;7603;49.432;11.418;2023-08-30T04:23:12;12.30;99.90
15013;DHT22;7603;49.432;11.418;2023-08-30T04:25:38;12.30;99.90
15013;DHT22;7603;49.432;11.418;2023-08-30T04:28:04;12.30;99.90
15013;DHT22;7603;49.432;11.418;2023-08-30T04:30:30;12.30;99.90
15013;DHT22;7603;49.432;11.418;2023-08-30T04:32:55;12.30;99.90
15013;DHT22;7603;49.432;11.418;2023-08-30T04:35:21;12.30;99.90
15013;DHT22;7603;49.432;11.418;2023-08-30T04:37:47;12.40;99.90
15013;DHT22;7603;49.432;11.418;2023-08-30T04:40:13;12.40;99.90
15013;DHT22;7603;49.432;11.418;2023-08-30T04:42:40;12.40;99.90
15013;DHT22;7603;49.432;11.418;2023-08-30T04:45:06;12.50;99.90
15013;DHT22;7603;49.432;11.418;2023-08-30T04:47:33;12.50;99.90
15013;DHT22;7603;49.432;11.418;2023-08-30T04:49:59;12.50;99.90
15013;DHT22;7603;49.432;11.418;2023-08-30T04:52:25;12.50;99.90
15013;DHT22;7603;49.432;11.418;2023-08-30T04:54:51;12.60;99.90
15013;DHT22;7603;49.432;11.418;2023-08-30T04:57:17;12.60;99.90
15013;DHT22;7603;49.432;11.418;2023-08-30T04:59:44;12.60;99.90
15013;DHT22;7603;49.432;11.418;2023-08-30T05:02:10;12.70;99.90
15013;DHT22;7603;49.432;11.418;2023-08-30T05:04:35;12.70;99.90
15013;DHT22;7603;49.432;11.418;2023-08-30T05:07:01;12.80;99.90
15013;DHT22;7603;49.432;11.418;2023-08-30T05:09:28;12.80;99.90
15013;DHT22;7603;49.432;11.418;2023-08-30T05:11:54;12.90;99.90
15013;DHT22;7603;49.432;11.418;2023-08-30T05:14:20;13.00;99.90
15013;DHT22;7603;49.432;11.418;2023-08-30T05:16:46;13.00;99.90
15013;DHT22;7603;49.432;11.418;2023-08-30T05:19:11;13.10;99.90
15013;DHT22;7603;49.432;11.418;2023-08-30T05:21:37;13.10;99.90
15013;DHT22;7603;49.432;11.418;2023-08-30T05:24:04;13.20;99.90
15013;DHT22;7603;49.432;11.418;2023-08-30T05:26:32;13.20;99.90
15013;DHT22;7603;49.432;11.418;2023-08-30T05:28:58;13.30;99.90
15013;DHT22;7603;49.432;11.418;2023-08-30T05:31:23;13.30;99.90
15013;DHT22;7603;49.432;11.418;2023-08-30T05:33:49;13.40;99.90
15013;DHT22;7603;49.432;11.418;2023-08-30T05:36:15;13.40;99.90
15013;DHT22;7603;49.432;11.418;2023-08-30T05:38:41;13.40;99.90
15013;DHT22;7603;49.432;11.418;2023-08-30T05:41:07;13.50;99.90
15013;DHT22;7603;49.432;11.418;2023-08-30T05:43:33;13.50;99.90
15013;DHT22;7603;49.432;11.418;2023-08-30T05:45:58;13.50;99.90
15013;DHT22;7603;49.432;11.418;2023-08-30T05:48:28;13.60;99.90
15013;DHT22;7603;49.432;11.418;2023-08-30T05:50:54;13.60;99.90
15013;DHT22;7603;49.432;11.418;2023-08-30T05:53:20;13.70;99.90
15013;DHT22;7603;49.432;11.418;2023-08-30T05:55:45;13.70;99.90
15013;DHT22;7603;49.432;11.418;2023-08-30T05:58:11;13.80;99.90
15013;DHT22;7603;49.432;11.418;2023-08-30T06:00:36;13.80;99.90
15013;DHT22;7603;49.432;11.418;2023-08-30T06:03:03;13.90;99.90
15013;DHT22;7603;49.432;11.418;2023-08-30T06:05:29;13.90;99.90
15013;DHT22;7603;49.432;11.418;2023-08-30T06:07:54;14.00;99.90
15013;DHT22;7603;49.432;11.418;2023-08-30T06:10:20;14.10;99.90
15013;DHT22;7603;49.432;11.418;2023-08-30T06:12:46;14.20;99.90
15013;DHT22;7603;49.432;11.418;2023-08-30T06:15:11;14.20;99.90
15013;DHT22;7603;49.432;11.418;2023-08-30T06:17:37;14.30;99.90
15013;DHT22;7603;49.432;11.418;2023-08-30T06:20:03;14.30;99.90
15013;DHT22;7603;49.432;11.418;2023-08-30T06:22:28;14.50;99.90
15013;DHT22;7603;49.432;11.418;2023-08-30T06:24:54;14.50;99.90
15013;DHT22;7603;49.432;11.418;2023-08-30T06:27:20;14.60;99.90
15013;DHT22;7603;49.432;11.418;2023-08-30T06:29:45;14.60;99.90
15013;DHT22;7603;49.432;11.418;2023-08-30T06:32:11;14.70;99.90
15013;DHT22;7603;49.432;11.418;2023-08-30T06:34:37;14.70;99.90
15013;DHT22;7603;49.432;11.418;2023-08-30T06:37:02;14.70;99.90
15013;DHT22;7603;49.432;11.418;2023-08-30T06:39:34;14.80;99.90
15013;DHT22;7603;49.432;11.418;2023-08-30T06:42:04;14.80;99.90
15013;DHT22;7603;49.432;11.418;2023-08-30T06:44:30;14.80;99.90
15013;DHT22;7603;49.432;11.418;2023-08-30T06:46:58;14.90;99.90
15013;DHT22;7603;49.432;11.418;2023-08-30T06:49:24;15.00;99.90
15013;DHT22;7603;49.432;11.418;2023-08-30T06:51:50;15.10;99.90
15013;DHT22;7603;49.432;11.418;2023-08-30T06:54:16;15.20;99.90
15013;DHT22;7603;49.432;11.418;2023-08-30T06:56:45;15.20;99.90
15013;DHT22;7603;49.432;11.418;2023-08-30T06:59:10;15.30;99.90
15013;DHT22;7603;49.432;11.418;2023-08-30T07:01:36;15.40;99.90
15013;DHT22;7603;49.432;11.418;2023-08-30T07:04:01;15.40;99.90
15013;DHT22;7603;49.432;11.418;2023-08-30T07:06:27;15.50;99.90
15013;DHT22;7603;49.432;11.418;2023-08-30T07:08:56;15.50;99.90
15013;DHT22;7603;49.432;11.418;2023-08-30T07:11:21;15.60;99.90
15013;DHT22;7603;49.432;11.418;2023-08-30T07:13:47;15.70;99.90
15013;DHT22;7603;49.432;11.418;2023-08-30T07:16:13;15.90;99.90
15013;DHT22;7603;49.432;11.418;2023-08-30T07:18:38;16.10;99.90
15013;DHT22;7603;49.432;11.418;2023-08-30T07:21:05;16.30;99.90
15013;DHT22;7603;49.432;11.418;2023-08-30T07:23:30;16.50;99.90
15013;DHT22;7603;49.432;11.418;2023-08-30T07:25:56;16.70;99.90
15013;DHT22;7603;49.432;11.418;2023-08-30T07:28:22;16.90;99.90
15013;DHT22;7603;49.432;11.418;2023-08-30T07:30:47;17.10;99.90
15013;DHT22;7603;49.432;11.418;2023-08-30T07:33:13;17.30;99.90
15013;DHT22;7603;49.432;11.418;2023-08-30T07:35:38;17.50;99.90
15013;DHT22;7603;49.432;11.418;2023-08-30T07:38:05;17.80;99.90
15013;DHT22;7603;49.432;11.418;2023-08-30T07:40:31;17.90;99.90
15013;DHT22;7603;49.432;11.418;2023-08-30T07:42:57;17.90;99.90
15013;DHT22;7603;49.432;11.418;2023-08-30T07:45:22;18.00;99.90
15013;DHT22;7603;49.432;11.418;2023-08-30T07:47:48;18.00;99.90
15013;DHT22;7603;49.432;11.418;2023-08-30T07:50:13;18.10;99.90
15013;DHT22;7603;49.432;11.418;2023-08-30T07:52:39;18.20;99.90
15013;DHT22;7603;49.432;11.418;2023-08-30T07:55:05;18.30;99.90
15013;DHT22;7603;49.432;11.418;2023-08-30T07:57:30;18.40;99.90
15013;DHT22;7603;49.432;11.418;2023-08-30T07:59:56;18.50;99.90
15013;DHT22;7603;49.432;11.418;2023-08-30T08:02:22;18.50;99.90
15013;DHT22;7603;49.432;11.418;2023-08-30T08:04:47;18.60;99.90
15013;DHT22;7603;49.432;11.418;2023-08-30T08:07:15;18.70;99.90
15013;DHT22;7603;49.432;11.418;2023-08-30T08:09:40;18.90;99.90
15013;DHT22;7603;49.432;11.418;2023-08-30T08:12:06;19.20;99.90
15013;DHT22;7603;49.432;11.418;2023-08-30T08:14:32;19.60;99.90
15013;DHT22;7603;49.432;11.418;2023-08-30T08:16:57;20.00;99.90
15013;DHT22;7603;49.432;11.418;2023-08-30T08:19:23;20.10;99.90
15013;DHT22;7603;49.432;11.418;2023-08-30T08:21:49;20.20;99.90
15013;DHT22;7603;49.432;11.418;2023-08-30T08:24:15;20.20;99.90
15013;DHT22;7603;49.432;11.418;2023-08-30T08:26:40;20.20;99.90
15013;DHT22;7603;49.432;11.418;2023-08-30T08:29:06;20.20;99.90
15013;DHT22;7603;49.432;11.418;2023-08-30T08:31:31;20.30;99.90
15013;DHT22;7603;49.432;11.418;2023-08-30T08:34:11;20.50;99.90
15013;DHT22;7603;49.432;11.418;2023-08-30T08:36:38;20.80;98.80
15013;DHT22;7603;49.432;11.418;2023-08-30T08:39:04;21.00;98.90
15013;DHT22;7603;49.432;11.418;2023-08-30T08:41:40;21.20;98.40
15013;DHT22;7603;49.432;11.418;2023-08-30T08:44:07;21.40;95.90
15013;DHT22;7603;49.432;11.418;2023-08-30T08:46:38;21.40;96.20
15013;DHT22;7603;49.432;11.418;2023-08-30T08:51:33;21.50;95.90
15013;DHT22;7603;49.432;11.418;2023-08-30T08:54:03;21.50;94.80
15013;DHT22;7603;49.432;11.418;2023-08-30T08:56:30;21.40;95.30
15013;DHT22;7603;49.432;11.418;2023-08-30T08:58:56;21.40;95.30
15013;DHT22;7603;49.432;11.418;2023-08-30T09:01:23;21.40;94.70
15013;DHT22;7603;49.432;11.418;2023-08-30T09:03:50;21.40;94.80
15013;DHT22;7603;49.432;11.418;2023-08-30T09:06:16;21.50;94.90
15013;DHT22;7603;49.432;11.418;2023-08-30T09:08:41;21.60;94.90
15013;DHT22;7603;49.432;11.418;2023-08-30T09:11:07;21.90;93.90
15013;DHT22;7603;49.432;11.418;2023-08-30T09:13:33;22.00;93.70
15013;DHT22;7603;49.432;11.418;2023-08-30T09:15:59;22.30;92.30
15013;DHT22;7603;49.432;11.418;2023-08-30T09:18:25;22.80;92.10
15013;DHT22;7603;49.432;11.418;2023-08-30T09:21:08;23.50;90.50
15013;DHT22;7603;49.432;11.418;2023-08-30T09:23:34;24.10;85.40
15013;DHT22;7603;49.432;11.418;2023-08-30T09:26:00;24.50;82.80
15013;DHT22;7603;49.432;11.418;2023-08-30T09:28:26;24.60;79.70
15013;DHT22;7603;49.432;11.418;2023-08-30T09:30:52;24.20;78.50
15013;DHT22;7603;49.432;11.418;2023-08-30T09:33:36;23.80;78.70
15013;DHT22;7603;49.432;11.418;2023-08-30T09:36:02;23.50;79.50
15013;DHT22;7603;49.432;11.418;2023-08-30T09:38:28;23.50;81.40
15013;DHT22;7603;49.432;11.418;2023-08-30T09:41:03;23.20;81.80
15013;DHT22;7603;49.432;11.418;2023-08-30T09:43:30;23.10;81.20
15013;DHT22;7603;49.432;11.418;2023-08-30T09:45:57;23.40;80.90
15013;DHT22;7603;49.432;11.418;2023-08-30T09:48:27;23.80;77.30
15013;DHT22;7603;49.432;11.418;2023-08-30T09:50:54;23.90;76.10
15013;DHT22;7603;49.432;11.418;2023-08-30T09:53:25;23.90;77.30
15013;DHT22;7603;49.432;11.418;2023-08-30T09:55:54;24.30;77.70
15013;DHT22;7603;49.432;11.418;2023-08-30T09:58:23;25.50;74.90
15013;DHT22;7603;49.432;11.418;2023-08-30T10:00:50;26.60;67.40
15013;DHT22;7603;49.432;11.418;2023-08-30T10:03:16;27.40;65.20
15013;DHT22;7603;49.432;11.418;2023-08-30T10:05:43;28.10;63.00
15013;DHT22;7603;49.432;11.418;2023-08-30T10:08:11;29.00;58.10
15013;DHT22;7603;49.432;11.418;2023-08-30T10:10:39;29.90;56.60
15013;DHT22;7603;49.432;11.418;2023-08-30T10:13:05;31.10;54.50
15013;DHT22;7603;49.432;11.418;2023-08-30T10:15:33;32.10;52.20
15013;DHT22;7603;49.432;11.418;2023-08-30T10:18:01;32.60;49.70
15013;DHT22;7603;49.432;11.418;2023-08-30T10:20:28;32.50;47.10
15013;DHT22;7603;49.432;11.418;2023-08-30T10:22:55;31.80;47.40
15013;DHT22;7603;49.432;11.418;2023-08-30T10:25:26;30.80;48.80
15013;DHT22;7603;49.432;11.418;2023-08-30T10:27:53;30.10;51.10
15013;DHT22;7603;49.432;11.418;2023-08-30T10:30:21;30.20;50.70
15013;DHT22;7603;49.432;11.418;2023-08-30T10:32:47;30.90;49.50
15013;DHT22;7603;49.432;11.418;2023-08-30T10:35:15;31.90;47.40
15013;DHT22;7603;49.432;11.418;2023-08-30T10:37:41;32.80;46.70
15013;DHT22;7603;49.432;11.418;2023-08-30T10:40:08;33.70;46.50
15013;DHT22;7603;49.432;11.418;2023-08-30T10:42:34;34.20;44.40
15013;DHT22;7603;49.432;11.418;2023-08-30T10:45:05;34.30;43.10
15013;DHT22;7603;49.432;11.418;2023-08-30T10:47:35;34.10;42.00
15013;DHT22;7603;49.432;11.418;2023-08-30T10:50:05;33.70;42.90
15013;DHT22;7603;49.432;11.418;2023-08-30T10:52:32;32.70;42.70
15013;DHT22;7603;49.432;11.418;2023-08-30T10:55:15;31.60;44.40
15013;DHT22;7603;49.432;11.418;2023-08-30T10:57:45;30.50;45.90
15013;DHT22;7603;49.432;11.418;2023-08-30T11:02:44;30.30;46.80
15013;DHT22;7603;49.432;11.418;2023-08-30T11:05:11;29.70;46.80
15013;DHT22;7603;49.432;11.418;2023-08-30T11:07:37;29.00;48.20
15013;DHT22;7603;49.432;11.418;2023-08-30T11:10:06;28.60;49.20
15013;DHT22;7603;49.432;11.418;2023-08-30T11:12:32;28.60;49.20
15013;DHT22;7603;49.432;11.418;2023-08-30T11:14:57;28.80;49.80
15013;DHT22;7603;49.432;11.418;2023-08-30T11:17:23;29.40;49.70
15013;DHT22;7603;49.432;11.418;2023-08-30T11:19:58;30.30;48.70
15013;DHT22;7603;49.432;11.418;2023-08-30T11:22:30;30.70;44.60
15013;DHT22;7603;49.432;11.418;2023-08-30T11:24:56;30.30;45.10
15013;DHT22;7603;49.432;11.418;2023-08-30T11:27:21;29.50;46.60
15013;DHT22;7603;49.432;11.418;2023-08-30T11:29:47;28.70;48.40
15013;DHT22;7603;49.432;11.418;2023-08-30T11:32:13;28.10;49.20
15013;DHT22;7603;49.432;11.418;2023-08-30T11:34:38;27.20;50.60
15013;DHT22;7603;49.432;11.418;2023-08-30T11:37:04;26.30;52.30
15013;DHT22;7603;49.432;11.418;2023-08-30T11:39:30;25.70;53.90
15013;DHT22;7603;49.432;11.418;2023-08-30T11:41:56;25.60;54.70
15013;DHT22;7603;49.432;11.418;2023-08-30T11:44:24;25.50;54.20
15013;DHT22;7603;49.432;11.418;2023-08-30T11:47:00;25.40;55.00
15013;DHT22;7603;49.432;11.418;2023-08-30T11:49:27;25.50;55.50
15013;DHT22;7603;49.432;11.418;2023-08-30T11:51:54;25.70;55.60
15013;DHT22;7603;49.432;11.418;2023-08-30T11:54:22;26.00;55.40
15013;DHT22;7603;49.432;11.418;2023-08-30T11:56:48;26.20;56.00
15013;DHT22;7603;49.432;11.418;2023-08-30T11:59:21;27.00;54.50
15013;DHT22;7603;49.432;11.418;2023-08-30T12:01:48;28.50;52.50
15013;DHT22;7603;49.432;11.418;2023-08-30T12:04:14;30.50;48.90
15013;DHT22;7603;49.432;11.418;2023-08-30T12:06:40;32.30;45.50
15013;DHT22;7603;49.432;11.418;2023-08-30T12:09:12;33.60;42.50
15013;DHT22;7603;49.432;11.418;2023-08-30T12:11:38;33.50;40.90
15013;DHT22;7603;49.432;11.418;2023-08-30T12:14:04;33.00;41.90
15013;DHT22;7603;49.432;11.418;2023-08-30T12:16:30;32.10;42.90
15013;DHT22;7603;49.432;11.418;2023-08-30T12:18:55;31.40;44.10
15013;DHT22;7603;49.432;11.418;2023-08-30T12:21:21;30.70;45.40
15013;DHT22;7603;49.432;11.418;2023-08-30T12:23:47;30.10;46.40
15013;DHT22;7603;49.432;11.418;2023-08-30T12:26:12;29.90;47.50
15013;DHT22;7603;49.432;11.418;2023-08-30T12:28:40;30.20;47.00
15013;DHT22;7603;49.432;11.418;2023-08-30T12:31:07;31.30;46.10
15013;DHT22;7603;49.432;11.418;2023-08-30T12:33:36;32.80;43.50
15013;DHT22;7603;49.432;11.418;2023-08-30T12:36:01;34.30;40.90
15013;DHT22;7603;49.432;11.418;2023-08-30T12:38:27;34.90;38.80
15013;DHT22;7603;49.432;11.418;2023-08-30T12:40:54;34.80;38.00
15013;DHT22;7603;49.432;11.418;2023-08-30T12:43:20;33.70;37.40
15013;DHT22;7603;49.432;11.418;2023-08-30T12:45:47;32.10;38.80
15013;DHT22;7603;49.432;11.418;2023-08-30T12:48:13;30.70;41.40
15013;DHT22;7603;49.432;11.418;2023-08-30T12:50:41;29.30;43.70
15013;DHT22;7603;49.432;11.418;2023-08-30T12:53:08;28.10;45.40
15013;DHT22;7603;49.432;11.418;2023-08-30T12:55:34;27.30;46.50
15013;DHT22;7603;49.432;11.418;2023-08-30T12:58:01;26.60;48.00
15013;DHT22;7603;49.432;11.418;2023-08-30T13:00:27;26.30;49.70
15013;DHT22;7603;49.432;11.418;2023-08-30T13:02:52;26.00;50.20
15013;DHT22;7603;49.432;11.418;2023-08-30T13:05:18;25.90;51.60
15013;DHT22;7603;49.432;11.418;2023-08-30T13:07:44;25.80;52.40
15013;DHT22;7603;49.432;11.418;2023-08-30T13:10:10;25.80;52.40
15013;DHT22;7603;49.432;11.418;2023-08-30T13:12:37;25.70;53.00
15013;DHT22;7603;49.432;11.418;2023-08-30T13:15:06;25.70;53.20
15013;DHT22;7603;49.432;11.418;2023-08-30T13:17:32;25.80;53.30
15013;DHT22;7603;49.432;11.418;2023-08-30T13:19:57;26.10;53.10
15013;DHT22;7603;49.432;11.418;2023-08-30T13:22:27;26.40;53.40
15013;DHT22;7603;49.432;11.418;2023-08-30T13:24:53;26.60;52.60
15013;DHT22;7603;49.432;11.418;2023-08-30T13:27:19;26.60;52.30
15013;DHT22;7603;49.432;11.418;2023-08-30T13:29:45;26.40;52.70
15013;DHT22;7603;49.432;11.418;2023-08-30T13:32:11;26.10;53.20
15013;DHT22;7603;49.432;11.418;2023-08-30T13:34:37;25.60;54.00
15013;DHT22;7603;49.432;11.418;2023-08-30T13:37:02;25.10;55.00
15013;DHT22;7603;49.432;11.418;2023-08-30T13:39:29;24.80;56.10
15013;DHT22;7603;49.432;11.418;2023-08-30T13:41:54;24.60;55.80
15013;DHT22;7603;49.432;11.418;2023-08-30T13:44:20;24.60;56.60
15013;DHT22;7603;49.432;11.418;2023-08-30T13:46:45;24.70;57.00
15013;DHT22;7603;49.432;11.418;2023-08-30T13:49:14;24.90;56.40
15013;DHT22;7603;49.432;11.418;2023-08-30T13:51:41;25.10;56.50
15013;DHT22;7603;49.432;11.418;2023-08-30T13:54:07;25.20;56.70
15013;DHT22;7603;49.432;11.418;2023-08-30T13:56:32;25.50;57.20
15013;DHT22;7603;49.432;11.418;2023-08-30T13:58:58;25.70;57.50
15013;DHT22;7603;49.432;11.418;2023-08-30T14:01:24;26.00;58.20
15013;DHT22;7603;49.432;11.418;2023-08-30T14:03:49;26.30;57.10
15013;DHT22;7603;49.432;11.418;2023-08-30T14:06:15;26.60;56.80
15013;DHT22;7603;49.432;11.418;2023-08-30T14:08:41;26.90;56.40
15013;DHT22;7603;49.432;11.418;2023-08-30T14:11:07;27.00;54.90
15013;DHT22;7603;49.432;11.418;2023-08-30T14:13:32;27.00;54.70
15013;DHT22;7603;49.432;11.418;2023-08-30T14:16:02;27.30;54.10
15013;DHT22;7603;49.432;11.418;2023-08-30T14:18:31;27.50;53.30
15013;DHT22;7603;49.432;11.418;2023-08-30T14:20:57;27.70;52.80
15013;DHT22;7603;49.432;11.418;2023-08-30T14:23:27;27.60;52.60
15013;DHT22;7603;49.432;11.418;2023-08-30T14:28:24;27.20;52.00
15013;DHT22;7603;49.432;11.418;2023-08-30T14:30:50;27.20;51.50
15013;DHT22;7603;49.432;11.418;2023-08-30T14:33:15;27.20;50.80
15013;DHT22;7603;49.432;11.418;2023-08-30T14:35:42;27.10;51.30
15013;DHT22;7603;49.432;11.418;2023-08-30T14:38:07;27.40;51.20
15013;DHT22;7603;49.432;11.418;2023-08-30T14:40:33;28.50;51.10
15013;DHT22;7603;49.432;11.418;2023-08-30T14:42:59;29.70;48.60
15013;DHT22;7603;49.432;11.418;2023-08-30T14:45:24;30.60;45.80
15013;DHT22;7603;49.432;11.418;2023-08-30T14:47:50;31.50;44.80
15013;DHT22;7603;49.432;11.418;2023-08-30T14:50:15;32.50;44.00
15013;DHT22;7603;49.432;11.418;2023-08-30T14:52:41;33.50;42.50
15013;DHT22;7603;49.432;11.418;2023-08-30T14:55:07;34.30;40.70
15013;DHT22;7603;49.432;11.418;2023-08-30T14:57:33;34.80;39.70
15013;DHT22;7603;49.432;11.418;2023-08-30T14:59:58;34.50;39.40
15013;DHT22;7603;49.432;11.418;2023-08-30T15:02:24;33.80;40.10
15013;DHT22;7603;49.432;11.418;2023-08-30T15:04:50;33.10;39.80
15013;DHT22;7603;49.432;11.418;2023-08-30T15:07:15;32.60;40.70
15013;DHT22;7603;49.432;11.418;2023-08-30T15:09:41;32.20;41.20
15013;DHT22;7603;49.432;11.418;2023-08-30T15:12:06;32.20;41.40
15013;DHT22;7603;49.432;11.418;2023-08-30T15:14:32;32.40;41.60
15013;DHT22;7603;49.432;11.418;2023-08-30T15:16:59;32.70;41.10
15013;DHT22;7603;49.432;11.418;2023-08-30T15:19:25;32.90;41.20
15013;DHT22;7603;49.432;11.418;2023-08-30T15:21:50;32.80;41.30
15013;DHT22;7603;49.432;11.418;2023-08-30T15:24:16;32.90;41.00
15013;DHT22;7603;49.432;11.418;2023-08-30T15:26:43;32.90;40.90
15013;DHT22;7603;49.432;11.418;2023-08-30T15:29:09;32.80;40.60
15013;DHT22;7603;49.432;11.418;2023-08-30T15:31:34;32.60;40.40
15013;DHT22;7603;49.432;11.418;2023-08-30T15:34:00;32.40;40.90